sensor_id;sensor_type;location;lat;lon;timestamp;P1;durP1;ratioP1;P2;durP2;ratioP2
43086;SDS011;28708;52.224;6.924;2022-07-22T00:01:36;7.40;;;3.13;;
43086;SDS011;28708;52.224;6.924;2022-07-22T00:04:02;7.07;;;3.10;;
43086;SDS011;28708;52.224;6.924;2022-07-22T00:06:29;9.20;;;3.50;;
43086;SDS011;28708;52.224;6.924;2022-07-22T00:08:55;9.37;;;2.90;;
43086;SDS011;28708;52.224;6.924;2022-07-22T00:11:22;7.80;;;3.20;;
43086;SDS011;28708;52.224;6.924;2022-07-22T00:13:48;9.37;;;2.93;;
43086;SDS011;28708;52.224;6.924;2022-07-22T00:16:14;7.90;;;3.30;;
43086;SDS011;28708;52.224;6.924;2022-07-22T00:18:40;10.43;;;3.07;;
43086;SDS011;28708;52.224;6.924;2022-07-22T00:21:06;8.17;;;3.20;;
43086;SDS011;28708;52.224;6.924;2022-07-22T00:23:32;11.23;;;3.57;;
43086;SDS011;28708;52.224;6.924;2022-07-22T00:25:57;8.60;;;3.17;;
43086;SDS011;28708;52.224;6.924;2022-07-22T00:28:23;12.57;;;3.50;;
43086;SDS011;28708;52.224;6.924;2022-07-22T00:30:49;10.67;;;2.67;;
43086;SDS011;28708;52.224;6.924;2022-07-22T00:33:15;8.57;;;3.00;;
43086;SDS011;28708;52.224;6.924;2022-07-22T00:35:41;8.93;;;3.40;;
43086;SDS011;28708;52.224;6.924;2022-07-22T00:38:07;9.43;;;3.00;;
43086;SDS011;28708;52.224;6.924;2022-07-22T00:40:32;11.67;;;3.37;;
43086;SDS011;28708;52.224;6.924;2022-07-22T00:42:59;8.90;;;2.97;;
43086;SDS011;28708;52.224;6.924;2022-07-22T00:45:25;7.27;;;3.03;;
43086;SDS011;28708;52.224;6.924;2022-07-22T00:47:51;7.30;;;2.93;;
43086;SDS011;28708;52.224;6.924;2022-07-22T00:50:17;7.80;;;2.83;;
43086;SDS011;28708;52.224;6.924;2022-07-22T00:52:45;10.00;;;3.07;;
43086;SDS011;28708;52.224;6.924;2022-07-22T00:55:11;7.93;;;2.80;;
43086;SDS011;28708;52.224;6.924;2022-07-22T00:57:37;12.10;;;3.20;;
43086;SDS011;28708;52.224;6.924;2022-07-22T01:00:04;8.93;;;2.97;;
43086;SDS011;28708;52.224;6.924;2022-07-22T01:02:32;13.05;;;3.80;;
43086;SDS011;28708;52.224;6.924;2022-07-22T01:04:58;10.87;;;2.90;;
43086;SDS011;28708;52.224;6.924;2022-07-22T01:07:24;10.53;;;2.93;;
43086;SDS011;28708;52.224;6.924;2022-07-22T01:09:50;9.80;;;2.90;;
43086;SDS011;28708;52.224;6.924;2022-07-22T01:12:16;10.13;;;2.90;;
43086;SDS011;28708;52.224;6.924;2022-07-22T01:14:42;10.43;;;2.83;;
43086;SDS011;28708;52.224;6.924;2022-07-22T01:17:08;7.60;;;3.13;;
43086;SDS011;28708;52.224;6.924;2022-07-22T01:19:35;9.30;;;2.97;;
43086;SDS011;28708;52.224;6.924;2022-07-22T01:22:02;10.20;;;2.90;;
43086;SDS011;28708;52.224;6.924;2022-07-22T01:24:29;12.57;;;3.20;;
43086;SDS011;28708;52.224;6.924;2022-07-22T01:26:55;6.57;;;3.10;;
43086;SDS011;28708;52.224;6.924;2022-07-22T01:29:21;9.33;;;2.90;;
43086;SDS011;28708;52.224;6.924;2022-07-22T01:31:46;16.17;;;3.67;;
43086;SDS011;28708;52.224;6.924;2022-07-22T01:34:12;13.03;;;3.67;;
43086;SDS011;28708;52.224;6.924;2022-07-22T01:36:38;12.07;;;3.37;;
43086;SDS011;28708;52.224;6.924;2022-07-22T01:39:04;9.33;;;3.47;;
43086;SDS011;28708;52.224;6.924;2022-07-22T01:41:30;9.00;;;3.77;;
43086;SDS011;28708;52.224;6.924;2022-07-22T01:43:57;9.23;;;3.43;;
43086;SDS011;28708;52.224;6.924;2022-07-22T01:46:23;13.43;;;3.83;;
43086;SDS011;28708;52.224;6.924;2022-07-22T01:48:50;11.57;;;3.97;;
43086;SDS011;28708;52.224;6.924;2022-07-22T01:51:17;10.40;;;3.60;;
43086;SDS011;28708;52.224;6.924;2022-07-22T01:53:43;13.50;;;3.63;;
43086;SDS011;28708;52.224;6.924;2022-07-22T01:56:09;10.33;;;3.70;;
43086;SDS011;28708;52.224;6.924;2022-07-22T01:58:43;11.50;;;4.00;;
43086;SDS011;28708;52.224;6.924;2022-07-22T02:01:09;15.73;;;4.20;;
43086;SDS011;28708;52.224;6.924;2022-07-22T02:03:35;13.67;;;4.70;;
43086;SDS011;28708;52.224;6.924;2022-07-22T02:06:02;10.40;;;3.67;;
43086;SDS011;28708;52.224;6.924;2022-07-22T02:08:28;12.70;;;4.23;;
43086;SDS011;28708;52.224;6.924;2022-07-22T02:11:10;12.67;;;3.97;;
43086;SDS011;28708;52.224;6.924;2022-07-22T02:13:47;11.73;;;3.80;;
43086;SDS011;28708;52.224;6.924;2022-07-22T02:16:13;10.67;;;4.37;;
43086;SDS011;28708;52.224;6.924;2022-07-22T02:18:39;9.03;;;3.50;;
43086;SDS011;28708;52.224;6.924;2022-07-22T02:21:07;10.43;;;3.77;;
43086;SDS011;28708;52.224;6.924;2022-07-22T02:23:33;12.17;;;3.53;;
43086;SDS011;28708;52.224;6.924;2022-07-22T02:25:59;12.97;;;4.33;;
43086;SDS011;28708;52.224;6.924;2022-07-22T02:28:24;7.97;;;2.93;;
43086;SDS011;28708;52.224;6.924;2022-07-22T02:30:52;10.13;;;3.40;;
43086;SDS011;28708;52.224;6.924;2022-07-22T02:33:18;10.33;;;3.77;;
43086;SDS011;28708;52.224;6.924;2022-07-22T02:35:44;11.33;;;3.73;;
43086;SDS011;28708;52.224;6.924;2022-07-22T02:38:10;15.20;;;3.77;;
43086;SDS011;28708;52.224;6.924;2022-07-22T02:40:37;11.13;;;3.53;;
43086;SDS011;28708;52.224;6.924;2022-07-22T02:43:03;10.60;;;2.90;;
43086;SDS011;28708;52.224;6.924;2022-07-22T02:45:32;12.27;;;3.20;;
43086;SDS011;28708;52.224;6.924;2022-07-22T02:47:58;14.13;;;3.87;;
43086;SDS011;28708;52.224;6.924;2022-07-22T02:50:25;8.97;;;2.97;;
43086;SDS011;28708;52.224;6.924;2022-07-22T02:52:51;12.00;;;3.50;;
43086;SDS011;28708;52.224;6.924;2022-07-22T02:55:18;10.67;;;3.03;;
43086;SDS011;28708;52.224;6.924;2022-07-22T02:57:45;11.97;;;3.10;;
43086;SDS011;28708;52.224;6.924;2022-07-22T03:00:12;9.43;;;2.80;;
43086;SDS011;28708;52.224;6.924;2022-07-22T03:02:39;9.77;;;2.80;;
43086;SDS011;28708;52.224;6.924;2022-07-22T03:05:05;9.47;;;2.80;;
43086;SDS011;28708;52.224;6.924;2022-07-22T03:07:34;15.00;;;3.07;;
43086;SDS011;28708;52.224;6.924;2022-07-22T03:10:01;11.73;;;3.10;;
43086;SDS011;28708;52.224;6.924;2022-07-22T03:12:27;11.77;;;2.87;;
43086;SDS011;28708;52.224;6.924;2022-07-22T03:14:53;9.73;;;2.80;;
43086;SDS011;28708;52.224;6.924;2022-07-22T03:17:19;13.63;;;2.97;;
43086;SDS011;28708;52.224;6.924;2022-07-22T03:19:45;14.83;;;2.90;;
43086;SDS011;28708;52.224;6.924;2022-07-22T03:22:11;11.37;;;2.53;;
43086;SDS011;28708;52.224;6.924;2022-07-22T03:24:37;8.83;;;2.77;;
43086;SDS011;28708;52.224;6.924;2022-07-22T03:27:03;8.50;;;2.37;;
43086;SDS011;28708;52.224;6.924;2022-07-22T03:29:30;7.03;;;2.40;;
43086;SDS011;28708;52.224;6.924;2022-07-22T03:31:56;9.77;;;2.60;;
43086;SDS011;28708;52.224;6.924;2022-07-22T03:34:37;9.87;;;2.93;;
43086;SDS011;28708;52.224;6.924;2022-07-22T03:37:06;8.07;;;2.40;;
43086;SDS011;28708;52.224;6.924;2022-07-22T03:39:31;8.97;;;2.43;;
43086;SDS011;28708;52.224;6.924;2022-07-22T03:41:57;7.50;;;2.67;;
43086;SDS011;28708;52.224;6.924;2022-07-22T03:44:23;8.23;;;2.53;;
43086;SDS011;28708;52.224;6.924;2022-07-22T03:46:49;8.57;;;2.57;;
43086;SDS011;28708;52.224;6.924;2022-07-22T03:49:15;16.03;;;3.50;;
43086;SDS011;28708;52.224;6.924;2022-07-22T03:51:41;8.33;;;2.43;;
43086;SDS011;28708;52.224;6.924;2022-07-22T03:54:07;8.67;;;2.60;;
43086;SDS011;28708;52.224;6.924;2022-07-22T03:56:37;10.18;;;2.30;;
43086;SDS011;28708;52.224;6.924;2022-07-22T03:59:02;14.57;;;2.50;;
43086;SDS011;28708;52.224;6.924;2022-07-22T04:01:29;8.87;;;2.43;;
43086;SDS011;28708;52.224;6.924;2022-07-22T04:03:56;11.23;;;2.50;;
43086;SDS011;28708;52.224;6.924;2022-07-22T04:06:26;12.73;;;2.90;;
43086;SDS011;28708;52.224;6.924;2022-07-22T04:08:58;8.33;;;2.40;;
43086;SDS011;28708;52.224;6.924;2022-07-22T04:11:25;8.20;;;2.47;;
43086;SDS011;28708;52.224;6.924;2022-07-22T04:13:51;8.50;;;2.50;;
43086;SDS011;28708;52.224;6.924;2022-07-22T04:16:18;6.67;;;2.20;;
43086;SDS011;28708;52.224;6.924;2022-07-22T04:18:53;10.00;;;2.80;;
43086;SDS011;28708;52.224;6.924;2022-07-22T04:21:34;9.47;;;2.53;;
43086;SDS011;28708;52.224;6.924;2022-07-22T04:24:05;6.97;;;2.30;;
43086;SDS011;28708;52.224;6.924;2022-07-22T04:26:31;10.93;;;2.80;;
43086;SDS011;28708;52.224;6.924;2022-07-22T04:28:58;7.93;;;2.30;;
43086;SDS011;28708;52.224;6.924;2022-07-22T04:31:24;8.57;;;2.40;;
43086;SDS011;28708;52.224;6.924;2022-07-22T04:33:56;9.00;;;2.40;;
43086;SDS011;28708;52.224;6.924;2022-07-22T04:36:23;9.63;;;2.30;;
43086;SDS011;28708;52.224;6.924;2022-07-22T04:38:51;8.03;;;2.10;;
43086;SDS011;28708;52.224;6.924;2022-07-22T04:41:17;6.47;;;2.03;;
43086;SDS011;28708;52.224;6.924;2022-07-22T04:43:43;8.17;;;2.30;;
43086;SDS011;28708;52.224;6.924;2022-07-22T04:46:09;8.17;;;2.23;;
43086;SDS011;28708;52.224;6.924;2022-07-22T04:48:39;6.97;;;2.13;;
43086;SDS011;28708;52.224;6.924;2022-07-22T04:51:05;11.03;;;2.40;;
43086;SDS011;28708;52.224;6.924;2022-07-22T04:53:32;11.23;;;2.30;;
43086;SDS011;28708;52.224;6.924;2022-07-22T04:55:58;8.23;;;2.20;;
43086;SDS011;28708;52.224;6.924;2022-07-22T04:58:24;10.00;;;2.00;;
43086;SDS011;28708;52.224;6.924;2022-07-22T05:00:50;7.73;;;2.20;;
43086;SDS011;28708;52.224;6.924;2022-07-22T05:03:16;6.10;;;1.97;;
43086;SDS011;28708;52.224;6.924;2022-07-22T05:05:43;10.57;;;2.47;;
43086;SDS011;28708;52.224;6.924;2022-07-22T05:08:10;9.17;;;2.00;;
43086;SDS011;28708;52.224;6.924;2022-07-22T05:10:37;10.23;;;2.50;;
43086;SDS011;28708;52.224;6.924;2022-07-22T05:13:03;12.53;;;2.33;;
43086;SDS011;28708;52.224;6.924;2022-07-22T05:15:31;6.93;;;2.37;;
43086;SDS011;28708;52.224;6.924;2022-07-22T05:17:57;6.03;;;1.87;;
43086;SDS011;28708;52.224;6.924;2022-07-22T05:20:27;9.25;;;2.15;;
43086;SDS011;28708;52.224;6.924;2022-07-22T05:22:52;10.43;;;2.00;;
43086;SDS011;28708;52.224;6.924;2022-07-22T05:25:25;7.53;;;2.13;;
43086;SDS011;28708;52.224;6.924;2022-07-22T05:27:51;5.00;;;1.90;;
43086;SDS011;28708;52.224;6.924;2022-07-22T05:30:23;7.83;;;2.30;;
43086;SDS011;28708;52.224;6.924;2022-07-22T05:32:49;5.30;;;1.87;;
43086;SDS011;28708;52.224;6.924;2022-07-22T05:35:20;9.70;;;2.50;;
43086;SDS011;28708;52.224;6.924;2022-07-22T05:37:47;6.57;;;1.80;;
43086;SDS011;28708;52.224;6.924;2022-07-22T05:40:13;10.00;;;2.47;;
43086;SDS011;28708;52.224;6.924;2022-07-22T05:42:39;6.93;;;2.30;;
43086;SDS011;28708;52.224;6.924;2022-07-22T05:45:05;9.00;;;2.10;;
43086;SDS011;28708;52.224;6.924;2022-07-22T05:47:31;8.10;;;1.93;;
43086;SDS011;28708;52.224;6.924;2022-07-22T05:49:57;10.57;;;2.17;;
43086;SDS011;28708;52.224;6.924;2022-07-22T05:52:23;8.20;;;2.03;;
43086;SDS011;28708;52.224;6.924;2022-07-22T05:54:49;6.50;;;1.57;;
43086;SDS011;28708;52.224;6.924;2022-07-22T05:57:15;5.03;;;1.80;;
43086;SDS011;28708;52.224;6.924;2022-07-22T05:59:41;11.07;;;2.03;;
43086;SDS011;28708;52.224;6.924;2022-07-22T06:02:07;7.77;;;1.67;;
43086;SDS011;28708;52.224;6.924;2022-07-22T06:04:46;7.80;;;2.00;;
43086;SDS011;28708;52.224;6.924;2022-07-22T06:07:13;9.07;;;2.00;;
43086;SDS011;28708;52.224;6.924;2022-07-22T06:09:41;7.10;;;1.97;;
43086;SDS011;28708;52.224;6.924;2022-07-22T06:12:06;10.03;;;1.70;;
43086;SDS011;28708;52.224;6.924;2022-07-22T06:14:34;5.40;;;1.87;;
43086;SDS011;28708;52.224;6.924;2022-07-22T06:17:02;6.03;;;1.83;;
43086;SDS011;28708;52.224;6.924;2022-07-22T06:19:28;7.10;;;1.97;;
43086;SDS011;28708;52.224;6.924;2022-07-22T06:21:55;7.33;;;1.80;;
43086;SDS011;28708;52.224;6.924;2022-07-22T06:24:21;7.97;;;1.70;;
43086;SDS011;28708;52.224;6.924;2022-07-22T06:26:47;7.40;;;1.67;;
43086;SDS011;28708;52.224;6.924;2022-07-22T06:29:14;9.20;;;2.03;;
43086;SDS011;28708;52.224;6.924;2022-07-22T06:31:40;7.60;;;1.80;;
43086;SDS011;28708;52.224;6.924;2022-07-22T06:34:06;5.50;;;1.50;;
43086;SDS011;28708;52.224;6.924;2022-07-22T06:36:48;6.67;;;1.80;;
43086;SDS011;28708;52.224;6.924;2022-07-22T06:39:14;5.10;;;1.33;;
43086;SDS011;28708;52.224;6.924;2022-07-22T06:41:56;6.73;;;1.83;;
43086;SDS011;28708;52.224;6.924;2022-07-22T06:44:40;8.30;;;1.67;;
43086;SDS011;28708;52.224;6.924;2022-07-22T06:47:11;6.57;;;1.50;;
43086;SDS011;28708;52.224;6.924;2022-07-22T06:49:37;6.17;;;1.60;;
43086;SDS011;28708;52.224;6.924;2022-07-22T06:52:04;4.53;;;1.53;;
43086;SDS011;28708;52.224;6.924;2022-07-22T06:54:29;7.40;;;1.53;;
43086;SDS011;28708;52.224;6.924;2022-07-22T06:56:58;5.80;;;1.53;;
43086;SDS011;28708;52.224;6.924;2022-07-22T06:59:28;6.50;;;1.50;;
43086;SDS011;28708;52.224;6.924;2022-07-22T07:01:55;8.20;;;1.80;;
43086;SDS011;28708;52.224;6.924;2022-07-22T07:04:21;5.77;;;1.63;;
43086;SDS011;28708;52.224;6.924;2022-07-22T07:06:48;7.07;;;1.20;;
43086;SDS011;28708;52.224;6.924;2022-07-22T07:09:35;6.53;;;1.40;;
43086;SDS011;28708;52.224;6.924;2022-07-22T07:12:23;9.50;;;1.60;;
43086;SDS011;28708;52.224;6.924;2022-07-22T07:15:09;3.20;;;1.40;;
43086;SDS011;28708;52.224;6.924;2022-07-22T07:17:37;4.90;;;1.40;;
43086;SDS011;28708;52.224;6.924;2022-07-22T07:20:05;4.43;;;1.37;;
43086;SDS011;28708;52.224;6.924;2022-07-22T07:22:34;6.17;;;1.43;;
43086;SDS011;28708;52.224;6.924;2022-07-22T07:25:04;6.07;;;1.37;;
43086;SDS011;28708;52.224;6.924;2022-07-22T07:27:31;6.40;;;1.53;;
43086;SDS011;28708;52.224;6.924;2022-07-22T07:29:58;5.23;;;1.50;;
43086;SDS011;28708;52.224;6.924;2022-07-22T07:32:24;7.87;;;1.67;;
43086;SDS011;28708;52.224;6.924;2022-07-22T07:34:50;4.97;;;1.30;;
43086;SDS011;28708;52.224;6.924;2022-07-22T07:37:17;8.80;;;1.80;;
43086;SDS011;28708;52.224;6.924;2022-07-22T07:39:43;4.50;;;1.43;;
43086;SDS011;28708;52.224;6.924;2022-07-22T07:42:09;7.17;;;1.77;;
43086;SDS011;28708;52.224;6.924;2022-07-22T07:44:35;6.63;;;1.43;;
43086;SDS011;28708;52.224;6.924;2022-07-22T07:47:02;5.13;;;1.40;;
43086;SDS011;28708;52.224;6.924;2022-07-22T07:49:28;7.87;;;1.93;;
43086;SDS011;28708;52.224;6.924;2022-07-22T07:51:54;5.47;;;1.63;;
43086;SDS011;28708;52.224;6.924;2022-07-22T07:54:20;5.30;;;1.20;;
43086;SDS011;28708;52.224;6.924;2022-07-22T07:56:46;6.70;;;1.40;;
43086;SDS011;28708;52.224;6.924;2022-07-22T07:59:12;5.83;;;1.27;;
43086;SDS011;28708;52.224;6.924;2022-07-22T08:01:40;6.03;;;1.37;;
43086;SDS011;28708;52.224;6.924;2022-07-22T08:04:05;5.77;;;1.50;;
43086;SDS011;28708;52.224;6.924;2022-07-22T08:06:31;6.03;;;1.50;;
43086;SDS011;28708;52.224;6.924;2022-07-22T08:08:57;5.27;;;1.40;;
43086;SDS011;28708;52.224;6.924;2022-07-22T08:11:31;6.07;;;1.40;;
43086;SDS011;28708;52.224;6.924;2022-07-22T08:14:17;5.13;;;1.40;;
43086;SDS011;28708;52.224;6.924;2022-07-22T08:16:59;4.03;;;1.47;;
43086;SDS011;28708;52.224;6.924;2022-07-22T08:19:26;5.50;;;1.70;;
43086;SDS011;28708;52.224;6.924;2022-07-22T08:21:52;5.90;;;1.70;;
43086;SDS011;28708;52.224;6.924;2022-07-22T08:24:29;7.63;;;1.70;;
43086;SDS011;28708;52.224;6.924;2022-07-22T08:26:59;5.53;;;1.60;;
43086;SDS011;28708;52.224;6.924;2022-07-22T08:29:25;4.13;;;1.27;;
43086;SDS011;28708;52.224;6.924;2022-07-22T08:31:52;5.03;;;1.43;;
43086;SDS011;28708;52.224;6.924;2022-07-22T08:34:19;5.50;;;1.63;;
43086;SDS011;28708;52.224;6.924;2022-07-22T08:36:45;8.10;;;1.73;;
43086;SDS011;28708;52.224;6.924;2022-07-22T08:39:12;6.73;;;1.57;;
43086;SDS011;28708;52.224;6.924;2022-07-22T08:41:38;6.47;;;1.60;;
43086;SDS011;28708;52.224;6.924;2022-07-22T08:44:05;2.80;;;1.23;;
43086;SDS011;28708;52.224;6.924;2022-07-22T08:46:33;5.03;;;1.57;;
43086;SDS011;28708;52.224;6.924;2022-07-22T08:49:19;7.80;;;2.03;;
43086;SDS011;28708;52.224;6.924;2022-07-22T08:52:01;7.10;;;1.67;;
43086;SDS011;28708;52.224;6.924;2022-07-22T08:54:35;4.47;;;1.50;;
43086;SDS011;28708;52.224;6.924;2022-07-22T08:57:02;7.40;;;1.60;;
43086;SDS011;28708;52.224;6.924;2022-07-22T08:59:28;4.07;;;1.40;;
43086;SDS011;28708;52.224;6.924;2022-07-22T09:02:01;6.73;;;1.63;;
43086;SDS011;28708;52.224;6.924;2022-07-22T09:07:26;7.13;;;1.60;;
43086;SDS011;28708;52.224;6.924;2022-07-22T09:10:22;5.30;;;1.63;;
43086;SDS011;28708;52.224;6.924;2022-07-22T09:13:07;6.40;;;1.70;;
43086;SDS011;28708;52.224;6.924;2022-07-22T09:15:49;5.67;;;2.10;;
43086;SDS011;28708;52.224;6.924;2022-07-22T09:18:52;5.50;;;1.67;;
43086;SDS011;28708;52.224;6.924;2022-07-22T09:21:23;6.10;;;2.03;;
43086;SDS011;28708;52.224;6.924;2022-07-22T09:24:25;6.97;;;1.60;;
43086;SDS011;28708;52.224;6.924;2022-07-22T09:27:02;6.43;;;2.10;;
43086;SDS011;28708;52.224;6.924;2022-07-22T09:29:48;7.33;;;1.73;;
43086;SDS011;28708;52.224;6.924;2022-07-22T09:32:16;6.50;;;2.37;;
43086;SDS011;28708;52.224;6.924;2022-07-22T09:35:03;11.27;;;2.67;;
43086;SDS011;28708;52.224;6.924;2022-07-22T09:37:36;7.37;;;2.37;;
43086;SDS011;28708;52.224;6.924;2022-07-22T09:40:23;7.30;;;2.30;;
43086;SDS011;28708;52.224;6.924;2022-07-22T09:42:51;6.47;;;1.73;;
43086;SDS011;28708;52.224;6.924;2022-07-22T09:45:19;5.47;;;1.83;;
43086;SDS011;28708;52.224;6.924;2022-07-22T09:47:47;6.30;;;1.77;;
43086;SDS011;28708;52.224;6.924;2022-07-22T09:50:43;6.43;;;1.70;;
43086;SDS011;28708;52.224;6.924;2022-07-22T09:53:12;5.82;;;1.70;;
43086;SDS011;28708;52.224;6.924;2022-07-22T09:55:44;8.03;;;1.93;;
43086;SDS011;28708;52.224;6.924;2022-07-22T09:58:11;6.57;;;1.87;;
43086;SDS011;28708;52.224;6.924;2022-07-22T10:00:38;4.43;;;1.53;;
43086;SDS011;28708;52.224;6.924;2022-07-22T10:03:06;6.03;;;2.23;;
43086;SDS011;28708;52.224;6.924;2022-07-22T10:05:39;5.63;;;2.00;;
43086;SDS011;28708;52.224;6.924;2022-07-22T10:10:34;6.17;;;1.90;;
43086;SDS011;28708;52.224;6.924;2022-07-22T10:13:03;4.30;;;1.50;;
43086;SDS011;28708;52.224;6.924;2022-07-22T10:15:30;5.90;;;1.50;;
43086;SDS011;28708;52.224;6.924;2022-07-22T10:17:59;4.57;;;1.47;;
43086;SDS011;28708;52.224;6.924;2022-07-22T10:20:27;4.67;;;1.40;;
43086;SDS011;28708;52.224;6.924;2022-07-22T10:22:55;3.30;;;1.53;;
43086;SDS011;28708;52.224;6.924;2022-07-22T10:25:28;8.38;;;1.52;;
43086;SDS011;28708;52.224;6.924;2022-07-22T10:27:56;5.33;;;1.57;;
43086;SDS011;28708;52.224;6.924;2022-07-22T10:30:27;9.00;;;2.00;;
43086;SDS011;28708;52.224;6.924;2022-07-22T10:33:14;5.37;;;1.70;;
43086;SDS011;28708;52.224;6.924;2022-07-22T10:38:09;4.13;;;1.40;;
43086;SDS011;28708;52.224;6.924;2022-07-22T10:46:02;5.17;;;1.60;;
43086;SDS011;28708;52.224;6.924;2022-07-22T10:51:09;5.10;;;1.87;;
43086;SDS011;28708;52.224;6.924;2022-07-22T10:56:26;5.00;;;1.90;;
43086;SDS011;28708;52.224;6.924;2022-07-22T10:59:07;5.27;;;2.00;;
43086;SDS011;28708;52.224;6.924;2022-07-22T11:01:41;3.13;;;1.50;;
43086;SDS011;28708;52.224;6.924;2022-07-22T11:04:10;3.47;;;1.55;;
43086;SDS011;28708;52.224;6.924;2022-07-22T11:06:44;3.10;;;1.57;;
43086;SDS011;28708;52.224;6.924;2022-07-22T11:09:12;3.93;;;1.40;;
43086;SDS011;28708;52.224;6.924;2022-07-22T11:11:49;5.60;;;1.60;;
43086;SDS011;28708;52.224;6.924;2022-07-22T11:16:50;5.10;;;1.83;;
43086;SDS011;28708;52.224;6.924;2022-07-22T11:19:21;4.07;;;1.60;;
43086;SDS011;28708;52.224;6.924;2022-07-22T11:21:50;4.40;;;1.80;;
43086;SDS011;28708;52.224;6.924;2022-07-22T11:24:24;5.90;;;1.60;;
43086;SDS011;28708;52.224;6.924;2022-07-22T11:26:52;3.73;;;1.33;;
43086;SDS011;28708;52.224;6.924;2022-07-22T11:31:52;6.13;;;2.03;;
43086;SDS011;28708;52.224;6.924;2022-07-22T11:34:19;4.50;;;1.43;;
43086;SDS011;28708;52.224;6.924;2022-07-22T11:36:48;3.58;;;1.40;;
43086;SDS011;28708;52.224;6.924;2022-07-22T11:39:18;3.70;;;1.40;;
43086;SDS011;28708;52.224;6.924;2022-07-22T11:41:45;5.20;;;1.80;;
43086;SDS011;28708;52.224;6.924;2022-07-22T11:44:11;6.47;;;1.93;;
43086;SDS011;28708;52.224;6.924;2022-07-22T11:46:41;4.07;;;1.70;;
43086;SDS011;28708;52.224;6.924;2022-07-22T11:51:35;5.20;;;1.57;;
43086;SDS011;28708;52.224;6.924;2022-07-22T11:54:03;3.97;;;1.43;;
43086;SDS011;28708;52.224;6.924;2022-07-22T11:56:30;6.23;;;1.83;;
43086;SDS011;28708;52.224;6.924;2022-07-22T11:58:56;8.60;;;3.40;;
43086;SDS011;28708;52.224;6.924;2022-07-22T12:01:24;4.13;;;1.43;;
43086;SDS011;28708;52.224;6.924;2022-07-22T12:03:55;6.15;;;1.70;;
43086;SDS011;28708;52.224;6.924;2022-07-22T12:06:26;6.43;;;1.77;;
43086;SDS011;28708;52.224;6.924;2022-07-22T12:09:36;6.03;;;1.90;;
43086;SDS011;28708;52.224;6.924;2022-07-22T12:11:51;6.53;;;1.90;;
43086;SDS011;28708;52.224;6.924;2022-07-22T12:14:24;2.70;;;1.50;;
43086;SDS011;28708;52.224;6.924;2022-07-22T12:16:58;4.40;;;1.67;;
43086;SDS011;28708;52.224;6.924;2022-07-22T12:19:35;5.77;;;2.10;;
43086;SDS011;28708;52.224;6.924;2022-07-22T12:22:03;4.77;;;1.60;;
43086;SDS011;28708;52.224;6.924;2022-07-22T12:24:35;4.70;;;1.83;;
43086;SDS011;28708;52.224;6.924;2022-07-22T12:27:03;5.67;;;1.63;;
43086;SDS011;28708;52.224;6.924;2022-07-22T12:32:05;6.20;;;1.70;;
43086;SDS011;28708;52.224;6.924;2022-07-22T12:37:00;5.57;;;1.70;;
43086;SDS011;28708;52.224;6.924;2022-07-22T12:45:05;3.28;;;1.45;;
43086;SDS011;28708;52.224;6.924;2022-07-22T12:47:40;5.80;;;1.63;;
43086;SDS011;28708;52.224;6.924;2022-07-22T12:52:42;3.72;;;1.33;;
43086;SDS011;28708;52.224;6.924;2022-07-22T12:55:08;5.45;;;1.73;;
43086;SDS011;28708;52.224;6.924;2022-07-22T12:57:34;4.80;;;1.73;;
43086;SDS011;28708;52.224;6.924;2022-07-22T13:00:00;7.45;;;2.22;;
43086;SDS011;28708;52.224;6.924;2022-07-22T13:02:25;5.40;;;1.95;;
43086;SDS011;28708;52.224;6.924;2022-07-22T13:04:51;5.95;;;2.50;;
43086;SDS011;28708;52.224;6.924;2022-07-22T13:07:17;5.15;;;1.70;;
43086;SDS011;28708;52.224;6.924;2022-07-22T13:09:43;6.95;;;1.83;;
43086;SDS011;28708;52.224;6.924;2022-07-22T13:12:09;5.13;;;1.33;;
43086;SDS011;28708;52.224;6.924;2022-07-22T13:14:34;4.05;;;1.50;;
43086;SDS011;28708;52.224;6.924;2022-07-22T13:17:00;4.80;;;1.98;;
43086;SDS011;28708;52.224;6.924;2022-07-22T13:19:26;6.25;;;1.63;;
43086;SDS011;28708;52.224;6.924;2022-07-22T13:21:52;3.65;;;1.80;;
43086;SDS011;28708;52.224;6.924;2022-07-22T13:24:18;4.80;;;1.90;;
43086;SDS011;28708;52.224;6.924;2022-07-22T13:26:43;6.82;;;2.28;;
43086;SDS011;28708;52.224;6.924;2022-07-22T13:29:10;6.88;;;2.10;;
43086;SDS011;28708;52.224;6.924;2022-07-22T13:31:37;6.00;;;2.25;;
43086;SDS011;28708;52.224;6.924;2022-07-22T13:34:03;4.45;;;1.77;;
43086;SDS011;28708;52.224;6.924;2022-07-22T13:36:29;3.97;;;1.75;;
43086;SDS011;28708;52.224;6.924;2022-07-22T13:38:57;6.25;;;1.60;;
43086;SDS011;28708;52.224;6.924;2022-07-22T13:41:24;6.53;;;1.92;;
43086;SDS011;28708;52.224;6.924;2022-07-22T13:43:49;7.80;;;1.45;;
43086;SDS011;28708;52.224;6.924;2022-07-22T13:46:16;4.80;;;1.73;;
43086;SDS011;28708;52.224;6.924;2022-07-22T13:48:42;6.00;;;1.75;;
43086;SDS011;28708;52.224;6.924;2022-07-22T13:51:09;5.43;;;1.70;;
43086;SDS011;28708;52.224;6.924;2022-07-22T13:53:35;5.40;;;1.48;;
43086;SDS011;28708;52.224;6.924;2022-07-22T13:56:02;4.63;;;1.60;;
43086;SDS011;28708;52.224;6.924;2022-07-22T13:58:29;5.35;;;1.63;;
43086;SDS011;28708;52.224;6.924;2022-07-22T14:00:56;5.60;;;1.48;;
43086;SDS011;28708;52.224;6.924;2022-07-22T14:03:22;4.85;;;1.42;;
43086;SDS011;28708;52.224;6.924;2022-07-22T14:05:48;2.92;;;1.35;;
43086;SDS011;28708;52.224;6.924;2022-07-22T14:08:14;4.28;;;1.58;;
43086;SDS011;28708;52.224;6.924;2022-07-22T14:10:40;5.30;;;1.52;;
43086;SDS011;28708;52.224;6.924;2022-07-22T14:13:06;4.68;;;1.60;;
43086;SDS011;28708;52.224;6.924;2022-07-22T14:15:32;5.10;;;1.73;;
43086;SDS011;28708;52.224;6.924;2022-07-22T14:17:58;5.00;;;1.67;;
43086;SDS011;28708;52.224;6.924;2022-07-22T14:20:24;5.72;;;1.58;;
43086;SDS011;28708;52.224;6.924;2022-07-22T14:22:50;5.68;;;1.50;;
43086;SDS011;28708;52.224;6.924;2022-07-22T14:25:16;6.72;;;1.67;;
43086;SDS011;28708;52.224;6.924;2022-07-22T14:27:42;4.47;;;1.92;;
43086;SDS011;28708;52.224;6.924;2022-07-22T14:30:08;4.05;;;1.58;;
43086;SDS011;28708;52.224;6.924;2022-07-22T14:32:34;5.25;;;1.88;;
43086;SDS011;28708;52.224;6.924;2022-07-22T14:35:03;4.68;;;1.35;;
43086;SDS011;28708;52.224;6.924;2022-07-22T14:37:34;5.55;;;1.40;;
43086;SDS011;28708;52.224;6.924;2022-07-22T14:40:00;4.78;;;1.52;;
43086;SDS011;28708;52.224;6.924;2022-07-22T14:42:26;6.10;;;1.52;;
43086;SDS011;28708;52.224;6.924;2022-07-22T14:44:52;4.43;;;1.60;;
43086;SDS011;28708;52.224;6.924;2022-07-22T14:47:18;3.88;;;1.30;;
43086;SDS011;28708;52.224;6.924;2022-07-22T14:49:43;4.43;;;1.70;;
43086;SDS011;28708;52.224;6.924;2022-07-22T14:52:09;3.40;;;1.30;;
43086;SDS011;28708;52.224;6.924;2022-07-22T14:54:35;5.03;;;1.80;;
43086;SDS011;28708;52.224;6.924;2022-07-22T14:57:01;5.30;;;1.60;;
43086;SDS011;28708;52.224;6.924;2022-07-22T14:59:27;4.70;;;1.55;;
43086;SDS011;28708;52.224;6.924;2022-07-22T15:01:54;3.85;;;1.70;;
43086;SDS011;28708;52.224;6.924;2022-07-22T15:04:20;3.25;;;1.73;;
43086;SDS011;28708;52.224;6.924;2022-07-22T15:06:46;3.30;;;1.40;;
43086;SDS011;28708;52.224;6.924;2022-07-22T15:09:12;6.80;;;1.70;;
43086;SDS011;28708;52.224;6.924;2022-07-22T15:11:37;4.35;;;1.55;;
43086;SDS011;28708;52.224;6.924;2022-07-22T15:14:03;4.88;;;1.67;;
43086;SDS011;28708;52.224;6.924;2022-07-22T15:16:29;6.25;;;1.48;;
43086;SDS011;28708;52.224;6.924;2022-07-22T15:18:55;5.57;;;1.63;;
43086;SDS011;28708;52.224;6.924;2022-07-22T15:21:21;4.32;;;1.30;;
43086;SDS011;28708;52.224;6.924;2022-07-22T15:23:47;6.43;;;1.50;;
43086;SDS011;28708;52.224;6.924;2022-07-22T15:26:13;3.47;;;1.75;;
43086;SDS011;28708;52.224;6.924;2022-07-22T15:28:39;3.70;;;1.80;;
43086;SDS011;28708;52.224;6.924;2022-07-22T15:31:05;6.03;;;1.73;;
43086;SDS011;28708;52.224;6.924;2022-07-22T15:33:32;7.32;;;1.77;;